Time;durP1;ratioP1;P1;durP2;ratioP2;P2;SDS_P1;SDS_P2;PMS_P1;PMS_P2;Temp;Humidity;BMP_temperature;BMP_pressure;BME280_temperature;BME280_humidity;BME280_pressure;Samples;Min_cycle;Max_cycle;Signal;HPM_P1;HPM_P2
2022/01/24 00:01:34;;;;;;;10.45;4.68;;;;;;;-1.80;65.58;94133.72;2068478;69;20139;-69
2022/01/24 00:04:02;;;;;;;10.70;5.68;;;;;;;-1.91;65.47;94133.69;2068302;69;20532;-68
2022/01/24 00:06:30;;;;;;;12.27;5.85;;;;;;;-1.70;64.63;94137.03;2068264;69;20249;-68
2022/01/24 00:08:55;;;;;;;10.63;5.97;;;;;;;-1.61;64.30;94145.84;2068182;69;20171;-68
2022/01/24 00:11:26;;;;;;;12.50;6.35;;;;;;;-1.58;63.78;94136.56;2068243;69;20593;-68
2022/01/24 00:27:15;;;;;;;11.85;5.30;;;;;;;-1.50;63.09;94136.13;2068268;69;20144;-69
2022/01/24 00:29:41;;;;;;;9.60;5.15;;;;;;;-1.34;62.51;94129.88;2065095;69;20188;-69
2022/01/24 00:32:07;;;;;;;8.65;4.60;;;;;;;-1.48;63.16;94134.34;2065017;69;20145;-71
2022/01/24 00:34:33;;;;;;;10.20;4.72;;;;;;;-1.46;63.48;94142.16;2068084;69;20214;-70
2022/01/24 00:37:00;;;;;;;8.07;4.55;;;;;;;-1.64;64.03;94143.34;2068260;69;20148;-69
2022/01/24 00:39:25;;;;;;;9.85;5.03;;;;;;;-1.43;63.52;94138.38;2068367;69;20269;-71
2022/01/24 00:42:20;;;;;;;9.45;5.18;;;;;;;-1.50;63.33;94139.63;2068384;69;20193;-75
2022/01/24 00:44:52;;;;;;;8.90;4.90;;;;;;;-1.49;62.13;94134.84;2067648;69;20149;-68
2022/01/24 00:47:24;;;;;;;8.07;4.55;;;;;;;-1.56;62.77;94138.84;2067951;69;20539;-70
2022/01/24 00:55:22;;;;;;;9.40;4.68;;;;;;;-1.71;63.61;94127.25;2068065;69;20136;-69
2022/01/24 00:57:48;;;;;;;9.52;4.68;;;;;;;-1.61;62.79;94125.75;2068232;69;20133;-68
2022/01/24 01:00:14;;;;;;;8.13;4.80;;;;;;;-1.68;62.85;94127.00;2067525;69;20144;-69
2022/01/24 01:02:39;;;;;;;9.57;5.07;;;;;;;-1.68;63.14;94124.25;2070434;69;20217;-73
2022/01/24 01:05:41;;;;;;;8.20;4.25;;;;;;;-1.56;63.62;94120.28;2068426;69;20156;-72
2022/01/24 01:18:04;;;;;;;10.35;4.63;;;;;;;-1.57;63.36;94121.50;2067997;69;20227;-68
2022/01/24 01:19:00;;;;;;;12.43;4.50;;;;;;;-1.70;63.53;94123.97;2071148;69;20147;-73
2022/01/24 01:21:26;;;;;;;8.63;4.20;;;;;;;-1.74;63.26;94125.47;2070061;69;20144;-71
2022/01/24 01:23:57;;;;;;;10.45;5.10;;;;;;;-1.74;63.92;94117.19;2068014;69;20176;-71
2022/01/24 01:26:31;;;;;;;12.75;5.32;;;;;;;-1.68;62.25;94120.75;2068192;69;20195;-72
2022/01/24 01:29:08;;;;;;;12.25;5.38;;;;;;;-1.83;63.54;94118.94;2068033;69;20137;-73
2022/01/24 01:31:49;;;;;;;11.77;5.35;;;;;;;-1.77;63.11;94118.94;2068123;69;20163;-67
2022/01/24 01:55:49;;;;;;;11.77;5.22;;;;;;;-1.96;62.45;94112.34;2065229;69;20215;-68
2022/01/24 01:58:20;;;;;;;11.82;5.05;;;;;;;-2.16;63.91;94110.47;2068258;69;20654;-67
2022/01/24 02:00:53;;;;;;;10.38;5.25;;;;;;;-2.17;63.57;94118.00;2068335;69;20623;-67
2022/01/24 02:03:19;;;;;;;10.18;5.38;;;;;;;-2.14;63.53;94114.28;2065000;69;20612;-68
2022/01/24 02:05:45;;;;;;;11.02;5.22;;;;;;;-2.20;63.41;94109.94;2068130;69;20607;-72
2022/01/24 02:08:11;;;;;;;10.65;5.40;;;;;;;-2.34;64.40;94112.41;2068324;69;20608;-70
2022/01/24 02:10:39;;;;;;;9.85;5.20;;;;;;;-2.25;64.21;94110.69;2067401;69;20149;-68
2022/01/24 02:13:06;;;;;;;11.75;5.90;;;;;;;-2.19;63.51;94119.75;2067674;69;20164;-68
2022/01/24 02:16:00;;;;;;;8.98;4.82;;;;;;;-2.22;62.86;94123.50;2068212;69;20156;-68
2022/01/24 02:18:33;;;;;;;9.70;4.90;;;;;;;-2.24;62.64;94132.28;2065077;69;20145;-70
2022/01/24 02:21:11;;;;;;;9.95;5.15;;;;;;;-2.11;63.27;94116.06;2068197;69;20172;-70
2022/01/24 02:23:43;;;;;;;9.52;5.22;;;;;;;-2.35;64.17;94121.16;2068420;69;20133;-68
2022/01/24 02:26:17;;;;;;;11.55;5.50;;;;;;;-2.20;63.10;94123.75;2068351;69;20129;-68
2022/01/24 02:28:54;;;;;;;10.70;5.15;;;;;;;-2.24;63.55;94112.97;2064957;69;20180;-68
2022/01/24 02:33:49;;;;;;;10.35;5.22;;;;;;;-2.21;63.94;94113.97;2068324;69;20198;-69
2022/01/24 02:36:24;;;;;;;9.30;4.85;;;;;;;-2.13;63.53;94107.50;2068315;69;20211;-70
2022/01/24 02:49:18;;;;;;;9.80;4.88;;;;;;;-2.31;64.15;94083.81;2068388;69;20210;-70
2022/01/24 02:51:46;;;;;;;11.45;4.60;;;;;;;-2.31;63.62;94088.59;2068511;69;20144;-71
2022/01/24 02:54:31;;;;;;;10.15;5.07;;;;;;;-2.33;63.48;94086.34;2067730;69;20252;-68
2022/01/24 02:56:57;;;;;;;10.95;5.00;;;;;;;-2.30;63.60;94081.81;2068216;69;20228;-68
2022/01/24 02:59:23;;;;;;;9.50;5.03;;;;;;;-2.43;64.76;94089.75;2068392;69;20569;-71
2022/01/24 03:01:48;;;;;;;10.05;5.40;;;;;;;-2.38;64.01;94092.56;2068464;69;20593;-71
2022/01/24 03:04:14;;;;;;;8.50;4.75;;;;;;;-2.40;63.37;94080.50;2068306;69;20668;-71
2022/01/24 03:06:40;;;;;;;7.68;4.38;;;;;;;-2.37;63.46;94079.53;2065002;69;20302;-68
2022/01/24 03:09:08;;;;;;;11.23;5.18;;;;;;;-2.43;63.92;94071.25;2068270;69;20149;-68
2022/01/24 03:14:20;;;;;;;10.02;4.63;;;;;;;-2.46;64.27;94072.22;2068549;69;20178;-70
2022/01/24 03:16:46;;;;;;;10.82;4.80;;;;;;;-2.49;63.62;94067.69;2068686;69;20141;-72
2022/01/24 03:19:14;;;;;;;8.70;4.50;;;;;;;-2.49;63.72;94070.44;2068438;69;20314;-70
2022/01/24 03:21:42;;;;;;;11.85;4.75;;;;;;;-2.62;64.38;94073.59;2068528;69;20145;-68
2022/01/24 03:24:08;;;;;;;7.40;4.20;;;;;;;-2.61;64.74;94063.38;2068562;69;20156;-67
2022/01/24 03:26:33;;;;;;;10.90;4.70;;;;;;;-2.58;64.40;94067.88;2068522;69;20172;-68
2022/01/24 03:28:59;;;;;;;9.65;4.97;;;;;;;-2.62;64.25;94072.84;2068464;69;20148;-68
2022/01/24 03:31:25;;;;;;;9.88;4.70;;;;;;;-2.72;64.50;94066.78;2068508;69;20140;-68
2022/01/24 03:33:51;;;;;;;10.90;5.35;;;;;;;-2.63;65.11;94055.56;2068507;69;20141;-69
2022/01/24 03:36:16;;;;;;;12.68;5.07;;;;;;;-2.59;64.81;94058.84;2068474;69;20157;-70
2022/01/24 03:38:42;;;;;;;9.68;4.65;;;;;;;-2.60;64.09;94054.59;2068515;69;20338;-68
2022/01/24 03:41:07;;;;;;;9.32;4.50;;;;;;;-2.67;64.53;94048.78;2068502;69;20588;-68
2022/01/24 03:43:34;;;;;;;12.63;5.28;;;;;;;-2.60;64.19;94045.56;2068509;69;20172;-69
2022/01/24 03:48:48;;;;;;;9.43;4.43;;;;;;;-2.75;64.45;94037.44;2065631;69;20144;-67
2022/01/24 03:51:14;;;;;;;10.85;4.75;;;;;;;-2.79;64.31;94042.44;2068371;69;20147;-68
2022/01/24 03:53:42;;;;;;;8.13;4.43;;;;;;;-2.84;65.01;94034.88;2068437;69;20148;-70
2022/01/24 03:56:08;;;;;;;8.90;4.93;;;;;;;-2.72;64.63;94022.69;2068449;69;20148;-68
2022/01/24 03:58:34;;;;;;;7.50;4.13;;;;;;;-2.74;64.87;94018.91;2068417;69;20517;-69
2022/01/24 04:01:01;;;;;;;9.90;4.38;;;;;;;-2.75;65.42;94014.63;2068490;69;20274;-69
2022/01/24 04:03:26;;;;;;;8.65;4.47;;;;;;;-2.81;64.89;94015.34;2068423;69;20227;-72
2022/01/24 04:05:52;;;;;;;11.82;4.60;;;;;;;-2.70;64.48;94013.91;2068234;69;20233;-73
2022/01/24 04:08:18;;;;;;;9.07;4.40;;;;;;;-2.82;64.88;94019.38;2068398;69;20607;-69
2022/01/24 04:10:47;;;;;;;8.63;4.20;;;;;;;-2.85;64.59;94012.06;2068388;69;20162;-69
2022/01/24 04:16:22;;;;;;;8.05;4.43;;;;;;;-2.94;64.86;94017.78;2068438;69;20559;-69
2022/01/24 04:23:59;;;;;;;9.55;4.70;;;;;;;-2.72;64.71;94013.66;2068424;69;20585;-69
2022/01/24 04:26:25;;;;;;;9.38;5.28;;;;;;;-2.84;64.84;93999.81;2068545;69;20220;-71
2022/01/24 04:28:51;;;;;;;11.88;5.75;;;;;;;-2.86;64.72;94002.31;2065056;69;20505;-69
2022/01/24 04:31:17;;;;;;;15.52;5.97;;;;;;;-2.81;64.33;93993.31;2065099;69;20142;-68
2022/01/24 04:33:43;;;;;;;13.30;6.22;;;;;;;-2.85;64.81;93997.53;2068362;69;20336;-69
2022/01/24 04:36:08;;;;;;;11.95;5.90;;;;;;;-2.95;65.23;94004.50;2068298;69;20600;-71
2022/01/24 04:38:34;;;;;;;16.25;7.15;;;;;;;-2.92;64.72;94003.53;2068437;69;20227;-70
2022/01/24 04:41:05;;;;;;;11.90;5.85;;;;;;;-2.90;64.67;93998.25;2068383;69;20147;-69
2022/01/24 04:46:11;;;;;;;12.05;6.18;;;;;;;-3.04;64.47;94008.19;2068480;69;20234;-68
2022/01/24 04:54:38;;;;;;;14.10;5.90;;;;;;;-2.88;64.81;93984.75;2062375;69;20220;-70
2022/01/24 04:57:00;;;;;;;11.40;5.15;;;;;;;-2.87;64.26;93981.50;2068406;69;20140;-69
2022/01/24 04:59:26;;;;;;;13.55;6.53;;;;;;;-2.99;65.10;93985.44;2068338;69;20151;-69
2022/01/24 05:01:52;;;;;;;10.07;5.75;;;;;;;-3.09;65.49;93984.88;2065023;69;20264;-69
2022/01/24 05:04:18;;;;;;;10.77;6.03;;;;;;;-3.04;65.00;93988.91;2068345;69;20595;-68
2022/01/24 05:06:43;;;;;;;19.13;7.60;;;;;;;-3.00;64.99;93981.19;2068279;69;20148;-68
2022/01/24 05:09:09;;;;;;;11.00;4.95;;;;;;;-2.93;64.78;93977.97;2068366;69;20156;-70
2022/01/24 05:11:45;;;;;;;12.07;5.80;;;;;;;-3.06;64.50;93977.63;2062062;69;20149;-70
2022/01/24 05:24:49;;;;;;;18.80;8.13;;;;;;;-3.11;64.01;93959.81;2068336;69;20133;-69
2022/01/24 05:27:15;;;;;;;16.13;7.40;;;;;;;-3.14;64.20;93966.31;2068251;69;20140;-71
2022/01/24 05:29:41;;;;;;;16.20;7.05;;;;;;;-3.22;64.97;93979.03;2068246;69;20536;-71
2022/01/24 05:32:08;;;;;;;17.75;7.28;;;;;;;-3.14;65.13;93971.81;2068232;69;20144;-69
2022/01/24 05:34:34;;;;;;;12.05;6.40;;;;;;;-3.12;64.78;93968.56;2067661;69;20584;-69
2022/01/24 05:37:00;;;;;;;12.35;6.25;;;;;;;-3.14;64.88;93962.81;2068208;69;20140;-69
2022/01/24 05:39:26;;;;;;;10.45;5.82;;;;;;;-3.09;64.58;93976.59;2068271;69;20141;-72
2022/01/24 05:41:52;;;;;;;12.52;5.82;;;;;;;-3.12;64.49;93974.81;2068198;69;20611;-68
2022/01/24 05:44:18;;;;;;;11.02;5.85;;;;;;;-3.04;64.79;93968.88;2068189;69;20619;-68
2022/01/24 05:46:44;;;;;;;13.02;5.93;;;;;;;-3.08;64.93;93966.34;2067686;69;20125;-68
2022/01/24 05:49:09;;;;;;;11.25;5.18;;;;;;;-3.02;63.97;93969.91;2068017;69;20623;-68
2022/01/24 05:51:35;;;;;;;12.63;7.55;;;;;;;-3.00;65.06;93956.38;2068171;69;20157;-68
2022/01/24 05:54:02;;;;;;;9.73;5.68;;;;;;;-2.99;65.47;93957.88;2068168;69;20141;-69
2022/01/24 05:56:27;;;;;;;9.48;5.78;;;;;;;-3.09;65.26;93951.06;2064819;69;20152;-72
2022/01/24 05:58:54;;;;;;;9.50;6.00;;;;;;;-2.94;64.32;93954.41;2068267;69;20500;-70
2022/01/24 06:01:19;;;;;;;9.48;5.65;;;;;;;-2.94;65.12;93964.66;2068357;69;20159;-69
2022/01/24 06:03:48;;;;;;;9.05;5.03;;;;;;;-2.94;65.38;93959.91;2068121;69;20164;-72
2022/01/24 06:06:13;;;;;;;9.25;4.68;;;;;;;-3.03;64.19;93951.84;2067966;69;20157;-71
2022/01/24 06:08:39;;;;;;;11.18;5.32;;;;;;;-3.09;64.67;93962.09;2068093;69;20520;-72
2022/01/24 06:11:05;;;;;;;10.57;5.35;;;;;;;-3.05;65.20;93968.13;2068093;69;20219;-72
2022/01/24 06:13:31;;;;;;;8.05;4.93;;;;;;;-2.86;64.65;93971.97;2068147;69;20222;-72
2022/01/24 06:15:56;;;;;;;11.60;5.90;;;;;;;-3.12;64.45;93963.06;2068085;69;20548;-68
2022/01/24 06:18:25;;;;;;;10.43;5.93;;;;;;;-3.17;64.27;93970.03;2068209;69;20222;-69
2022/01/24 06:20:52;;;;;;;11.23;6.45;;;;;;;-3.06;64.80;93969.38;2068051;69;20610;-67
2022/01/24 06:23:19;;;;;;;20.23;12.50;;;;;;;-3.06;64.18;93972.13;2068613;69;20176;-68
2022/01/24 06:25:44;;;;;;;14.75;9.02;;;;;;;-3.00;64.60;93974.91;2068712;69;20613;-67
2022/01/24 06:28:11;;;;;;;16.45;8.90;;;;;;;-2.94;63.92;93978.44;2068590;69;20152;-68
2022/01/24 06:30:36;;;;;;;13.52;8.88;;;;;;;-2.98;64.41;93981.44;2068597;69;20230;-68
2022/01/24 06:33:03;;;;;;;15.82;7.78;;;;;;;-2.96;64.52;93978.19;2065409;69;20587;-68
2022/01/24 06:35:28;;;;;;;13.13;7.95;;;;;;;-3.19;64.53;93974.53;2068573;69;20179;-70
2022/01/24 06:37:54;;;;;;;15.75;7.60;;;;;;;-3.18;64.65;93996.09;2068691;69;20620;-69
2022/01/24 06:40:19;;;;;;;14.23;6.97;;;;;;;-3.14;64.42;93988.34;2068581;69;20136;-68
2022/01/24 06:42:45;;;;;;;12.27;6.60;;;;;;;-3.12;64.07;93991.34;2068577;69;20206;-68
2022/01/24 06:45:11;;;;;;;13.85;6.53;;;;;;;-3.08;64.38;94004.91;2065241;69;20144;-69
2022/01/24 06:47:38;;;;;;;15.95;7.68;;;;;;;-3.21;64.08;94001.81;2068561;69;20141;-69
2022/01/24 06:50:07;;;;;;;16.17;7.20;;;;;;;-3.26;64.96;93997.78;2068442;69;20156;-68
2022/01/24 06:52:33;;;;;;;14.15;6.90;;;;;;;-3.16;63.89;94004.63;2068599;69;20164;-69
2022/01/24 06:54:59;;;;;;;15.82;8.10;;;;;;;-3.24;63.73;94002.81;2068518;69;20147;-69
2022/01/24 06:57:25;;;;;;;19.08;10.23;;;;;;;-3.27;64.81;94006.53;2068600;69;20232;-68
2022/01/24 06:59:50;;;;;;;23.52;12.70;;;;;;;-3.46;65.41;94009.63;2068590;69;20141;-70
2022/01/24 07:02:16;;;;;;;20.25;10.48;;;;;;;-3.43;65.02;94019.69;2068563;69;20184;-68
2022/01/24 07:04:43;;;;;;;21.45;10.93;;;;;;;-3.31;65.23;94015.00;2068433;69;20153;-72
2022/01/24 07:07:10;;;;;;;20.08;9.27;;;;;;;-3.22;64.68;94014.06;2068527;69;20140;-68
2022/01/24 07:09:36;;;;;;;26.33;12.13;;;;;;;-3.24;64.64;94011.81;2068500;69;20149;-73
2022/01/24 07:12:03;;;;;;;67.43;41.40;;;;;;;-3.25;64.86;94020.56;2068525;69;20614;-74
2022/01/24 07:14:29;;;;;;;36.50;20.42;;;;;;;-3.19;64.41;94024.13;2068508;69;20224;-67
2022/01/24 07:19:21;;;;;;;30.48;15.45;;;;;;;-3.16;65.38;94032.19;2068386;69;20149;-68
2022/01/24 07:21:47;;;;;;;25.35;12.88;;;;;;;-3.05;65.55;94025.97;2068501;69;20543;-68
2022/01/24 07:24:13;;;;;;;21.80;11.30;;;;;;;-3.32;67.45;94027.28;2068510;69;20176;-68
2022/01/24 07:26:38;;;;;;;23.58;11.90;;;;;;;-3.15;66.07;94025.41;2068459;69;20148;-68
2022/01/24 07:29:04;;;;;;;27.17;13.23;;;;;;;-3.17;65.41;94036.16;2068393;69;20233;-68
2022/01/24 07:31:30;;;;;;;22.83;11.02;;;;;;;-3.03;65.33;94025.47;2067992;69;20149;-72
2022/01/24 07:33:55;;;;;;;22.05;10.68;;;;;;;-2.97;64.76;94029.81;2068227;69;20140;-69
2022/01/24 07:36:22;;;;;;;24.98;11.68;;;;;;;-2.98;64.49;94030.28;2068474;69;20148;-69
2022/01/24 07:38:48;;;;;;;23.27;11.13;;;;;;;-2.98;64.83;94031.03;2068701;69;20486;-69
2022/01/24 07:41:16;;;;;;;23.77;11.77;;;;;;;-2.90;64.46;94034.09;2068562;69;20610;-71
2022/01/24 07:43:42;;;;;;;34.08;16.67;;;;;;;-3.30;66.61;94033.03;2068390;69;20601;-73
2022/01/24 07:46:08;;;;;;;31.65;15.70;;;;;;;-3.14;66.07;94028.91;2068630;69;20151;-72
2022/01/24 07:48:33;;;;;;;29.02;15.15;;;;;;;-3.08;65.42;94032.47;2068373;69;20168;-71
2022/01/24 07:50:59;;;;;;;29.48;15.48;;;;;;;-3.11;65.68;94034.22;2068309;69;20151;-70
2022/01/24 07:53:25;;;;;;;28.73;14.77;;;;;;;-3.07;65.54;94045.00;2068435;69;20148;-69
2022/01/24 07:55:52;;;;;;;31.48;16.35;;;;;;;-2.98;64.41;94038.53;2068239;69;20627;-69
2022/01/24 07:58:18;;;;;;;35.17;19.02;;;;;;;-2.99;64.31;94040.53;2065037;69;20171;-70
2022/01/24 08:00:44;;;;;;;32.53;17.73;;;;;;;-3.10;65.82;94040.47;2068367;69;20228;-68
2022/01/24 08:03:10;;;;;;;33.97;16.40;;;;;;;-3.07;65.89;94048.53;2068463;69;20156;-69
2022/01/24 08:05:36;;;;;;;47.13;22.88;;;;;;;-3.02;65.73;94054.53;2064946;69;20657;-74
2022/01/24 08:08:02;;;;;;;40.70;21.25;;;;;;;-2.90;65.18;94048.63;2068384;69;20151;-70
2022/01/24 08:10:27;;;;;;;43.83;21.27;;;;;;;-2.89;65.24;94058.41;2068395;69;20156;-70
2022/01/24 08:12:53;;;;;;;40.90;20.35;;;;;;;-2.91;65.32;94055.38;2068330;69;20233;-70
2022/01/24 08:15:19;;;;;;;34.88;17.60;;;;;;;-3.01;65.98;94069.84;2068347;69;20158;-70
2022/01/24 08:17:44;;;;;;;34.42;17.95;;;;;;;-3.04;65.90;94073.56;2068521;69;20151;-68
2022/01/24 08:20:12;;;;;;;29.80;16.25;;;;;;;-3.00;66.23;94079.63;2068256;69;20588;-67
2022/01/24 08:22:38;;;;;;;25.83;14.48;;;;;;;-2.95;65.94;94082.41;2068394;69;20141;-68
2022/01/24 08:25:05;;;;;;;26.63;14.63;;;;;;;-2.82;64.27;94082.00;2068301;69;20155;-68
2022/01/24 08:27:34;;;;;;;29.52;15.57;;;;;;;-3.00;65.72;94077.63;2068331;69;20154;-68
2022/01/24 08:30:00;;;;;;;30.45;15.93;;;;;;;-2.96;65.84;94075.41;2068311;69;20145;-68
2022/01/24 08:32:26;;;;;;;36.20;17.35;;;;;;;-2.94;65.46;94078.41;2068338;69;20218;-68
2022/01/24 08:34:52;;;;;;;32.58;17.90;;;;;;;-2.91;65.58;94087.72;2068189;69;20140;-69
2022/01/24 08:37:18;;;;;;;34.88;18.50;;;;;;;-2.83;65.17;94086.03;2068277;69;20149;-69
2022/01/24 08:39:45;;;;;;;38.13;17.60;;;;;;;-2.89;65.50;94090.72;2068270;69;20141;-72
2022/01/24 08:42:31;;;;;;;35.30;18.42;;;;;;;-2.85;65.59;94091.25;2068306;69;20148;-76
2022/01/24 08:47:30;;;;;;;47.28;25.27;;;;;;;-2.09;65.39;94101.75;2068299;69;20137;-71
2022/01/24 08:49:58;;;;;;;43.55;21.45;;;;;;;-1.71;64.98;94097.63;2067755;69;20152;-74
2022/01/24 08:52:25;;;;;;;40.88;21.80;;;;;;;-1.32;63.00;94094.97;2068257;69;20137;-69
2022/01/24 08:54:52;;;;;;;39.20;21.40;;;;;;;-1.05;62.69;94098.28;2068258;69;20171;-71
2022/01/24 08:57:21;;;;;;;48.17;24.73;;;;;;;-0.83;65.01;94087.19;2068237;69;20531;-73
2022/01/24 08:59:48;;;;;;;44.00;22.23;;;;;;;-0.65;63.38;94085.19;2068275;69;20153;-72
2022/01/24 09:02:13;;;;;;;39.95;21.63;;;;;;;-0.22;63.94;94090.41;2068397;69;20196;-69
2022/01/24 09:04:39;;;;;;;40.92;20.58;;;;;;;-0.06;63.66;94089.59;2068212;69;20558;-68
2022/01/24 09:07:06;;;;;;;34.97;18.55;;;;;;;0.28;64.49;94093.00;2068278;69;20136;-69
2022/01/24 09:09:34;;;;;;;32.42;16.90;;;;;;;0.39;61.65;94094.97;2068258;69;20163;-69
2022/01/24 09:12:03;;;;;;;32.15;17.33;;;;;;;0.84;61.21;94094.72;2068252;69;20667;-68
2022/01/24 09:14:28;;;;;;;29.05;14.30;;;;;;;0.70;61.05;94099.34;2068284;69;20215;-68
2022/01/24 09:16:54;;;;;;;26.58;14.95;;;;;;;1.17;60.97;94091.72;2064946;69;20243;-71
2022/01/24 09:19:20;;;;;;;32.05;16.58;;;;;;;1.49;60.38;94086.41;2068114;69;20153;-70
2022/01/24 09:21:45;;;;;;;27.92;14.00;;;;;;;1.53;59.15;94084.09;2068354;69;20152;-70
2022/01/24 09:24:11;;;;;;;24.45;13.05;;;;;;;1.85;58.33;94088.34;2068256;69;20144;-73
2022/01/24 09:26:36;;;;;;;27.05;13.93;;;;;;;2.17;57.81;94094.81;2068244;69;20213;-71
2022/01/24 09:29:03;;;;;;;29.42;14.85;;;;;;;2.27;57.78;94087.63;2068305;69;20528;-71
2022/01/24 09:31:28;;;;;;;28.35;16.02;;;;;;;2.56;57.67;94093.56;2068197;69;20197;-70
2022/01/24 09:33:54;;;;;;;30.92;15.95;;;;;;;2.25;56.79;94090.19;2068266;69;20528;-72
2022/01/24 09:36:20;;;;;;;34.25;16.52;;;;;;;2.31;56.60;94090.09;2068343;69;20149;-73
2022/01/24 09:38:45;;;;;;;41.42;20.60;;;;;;;2.11;55.94;94085.03;2068319;69;20129;-73
2022/01/24 09:41:15;;;;;;;37.60;16.90;;;;;;;2.64;56.47;94085.41;2068211;69;20666;-71
2022/01/24 09:43:43;;;;;;;28.08;13.88;;;;;;;3.15;54.35;94091.75;2068223;69;20616;-70
2022/01/24 09:46:10;;;;;;;26.30;13.23;;;;;;;2.73;53.98;94083.00;2068347;69;20183;-68
2022/01/24 09:48:38;;;;;;;27.05;13.98;;;;;;;2.87;53.63;94080.28;2068144;69;20504;-69
2022/01/24 09:51:05;;;;;;;28.13;14.20;;;;;;;3.49;53.29;94080.84;2068031;69;20152;-71
2022/01/24 09:53:30;;;;;;;16.90;9.10;;;;;;;3.54;51.62;94082.78;2068175;69;20586;-71
2022/01/24 09:56:01;;;;;;;17.58;7.45;;;;;;;3.63;51.85;94080.88;2068145;69;20165;-71
2022/01/24 09:58:27;;;;;;;11.55;6.75;;;;;;;3.56;50.76;94080.22;2068827;69;20202;-72
2022/01/24 10:00:53;;;;;;;13.18;7.72;;;;;;;3.32;50.99;94072.00;2065352;69;20172;-74
2022/01/24 10:03:18;;;;;;;16.83;9.73;;;;;;;3.60;49.88;94070.81;2068842;69;20164;-73
2022/01/24 10:05:54;;;;;;;14.50;7.38;;;;;;;4.69;49.51;94073.28;2068393;69;20172;-69
2022/01/24 10:08:23;;;;;;;12.07;5.55;;;;;;;4.63;48.92;94069.09;2068517;69;20254;-69
2022/01/24 10:10:55;;;;;;;11.60;5.82;;;;;;;4.94;48.27;94065.38;2068535;69;20682;-69
2022/01/24 10:16:26;;;;;;;12.02;7.15;;;;;;;5.43;46.41;94053.59;2068651;69;20153;-72
2022/01/24 10:19:19;;;;;;;8.82;4.63;;;;;;;5.02;46.19;94055.03;2068679;69;20137;-70
2022/01/24 10:21:50;;;;;;;8.10;4.10;;;;;;;5.05;44.91;94044.84;2067916;69;20214;-75
2022/01/24 10:24:41;;;;;;;8.48;5.20;;;;;;;5.14;45.63;94046.44;2068635;69;20221;-70
2022/01/24 10:27:24;;;;;;;7.03;3.92;;;;;;;5.94;44.19;94041.16;2068637;69;20172;-75
2022/01/24 10:30:08;;;;;;;7.97;4.53;;;;;;;5.79;44.89;94041.78;2068828;69;20141;-70
2022/01/24 10:32:55;;;;;;;8.77;4.97;;;;;;;5.76;45.78;94043.63;2068561;69;20143;-74
2022/01/24 10:35:45;;;;;;;8.10;4.40;;;;;;;5.19;46.42;94042.75;2068652;69;20140;-72
2022/01/24 10:38:25;;;;;;;8.30;4.40;;;;;;;5.91;45.34;94036.63;2068629;69;20145;-73
2022/01/24 10:41:08;;;;;;;7.75;4.75;;;;;;;6.34;44.57;94030.41;2068648;69;20792;-74
2022/01/24 10:43:36;;;;;;;7.50;4.18;;;;;;;6.74;42.64;94024.44;2068760;69;20176;-72
2022/01/24 10:46:02;;;;;;;10.05;6.03;;;;;;;7.15;43.64;94023.44;2068629;69;20492;-70
2022/01/24 10:48:33;;;;;;;9.18;6.07;;;;;;;8.20;42.70;94025.31;2068768;69;20132;-70
2022/01/24 10:51:23;;;;;;;10.35;5.50;;;;;;;8.99;41.07;94023.25;2068473;69;20612;-74
2022/01/24 10:53:55;;;;;;;6.63;4.40;;;;;;;8.89;40.09;94023.09;2066406;69;20129;-73
2022/01/24 10:56:29;;;;;;;6.50;4.13;;;;;;;8.62;39.27;94015.16;2068569;69;20559;-69
2022/01/24 10:59:11;;;;;;;9.95;4.80;;;;;;;8.56;37.67;94013.84;2065255;69;20172;-71
2022/01/24 11:01:39;;;;;;;8.27;5.72;;;;;;;9.84;36.79;94010.84;2068548;69;20520;-72
2022/01/24 11:04:09;;;;;;;10.52;5.20;;;;;;;9.97;35.74;94006.28;2068417;69;20173;-70
2022/01/24 11:06:45;;;;;;;8.63;5.38;;;;;;;9.21;36.78;94016.75;2068522;69;20145;-72
2022/01/24 11:09:30;;;;;;;12.50;6.70;;;;;;;9.18;37.63;94005.91;2068338;69;20608;-74
2022/01/24 11:11:57;;;;;;;9.18;5.70;;;;;;;10.78;35.32;94006.59;2068681;69;20168;-72
2022/01/24 11:14:25;;;;;;;8.98;4.72;;;;;;;10.90;34.31;93997.06;2065194;69;20148;-73
2022/01/24 11:16:52;;;;;;;7.13;4.13;;;;;;;12.91;32.85;94004.56;2068506;69;20140;-73
2022/01/24 11:22:07;;;;;;;11.70;5.15;;;;;;;15.23;30.03;93994.22;2068612;69;20141;-71
2022/01/24 11:24:40;;;;;;;10.15;4.47;;;;;;;16.33;26.49;94003.16;2068732;69;20177;-70
2022/01/24 11:27:06;;;;;;;;;;;;;;;16.76;27.21;94001.50;2068638;69;20152;-69
2022/01/24 11:29:33;;;;;;;4.38;3.20;;;;;;;18.58;24.99;94010.78;2068455;69;20045;-69
2022/01/24 11:32:34;;;;;;;4.10;2.95;;;;;;;16.96;24.78;94004.06;2065180;69;20489;-70
2022/01/24 11:35:01;;;;;;;8.05;3.92;;;;;;;17.94;24.99;94003.84;2067532;69;20153;-71
2022/01/24 11:37:39;;;;;;;9.10;3.30;;;;;;;17.65;25.17;93999.44;2068482;69;20628;-71
2022/01/24 11:40:17;;;;;;;17.30;6.15;;;;;;;18.48;25.16;94000.31;2068489;69;20144;-70
2022/01/24 11:42:46;;;;;;;12.32;7.55;;;;;;;18.16;25.05;93996.50;2068485;69;20159;-73
2022/01/24 11:45:16;;;;;;;12.40;7.05;;;;;;;19.57;23.67;93989.34;2068237;69;20147;-69
2022/01/24 11:47:43;;;;;;;6.57;4.43;;;;;;;19.62;22.85;93988.19;2064493;69;20145;-69
2022/01/24 11:50:38;;;;;;;7.47;6.25;;;;;;;19.63;23.87;93988.91;2067950;69;20160;-69
2022/01/24 11:53:22;;;;;;;7.80;6.18;;;;;;;21.48;21.90;93993.50;2064296;69;20226;-69
2022/01/24 11:55:47;;;;;;;5.80;3.90;;;;;;;20.88;22.05;93986.69;2068158;69;20612;-69
2022/01/24 11:58:22;;;;;;;4.65;3.10;;;;;;;20.48;21.80;93986.38;2068325;69;20269;-70
2022/01/24 12:00:48;;;;;;;7.00;3.60;;;;;;;17.92;23.56;93972.41;2068443;69;20199;-69
2022/01/24 12:03:28;;;;;;;13.38;8.43;;;;;;;15.25;24.58;93971.66;2068435;69;20606;-69
2022/01/24 12:05:57;;;;;;;7.40;6.03;;;;;;;12.72;27.29;93963.66;2068349;69;20152;-69
2022/01/24 12:08:33;;;;;;;12.48;4.95;;;;;;;12.43;28.94;93963.66;2068520;69;20236;-69
2022/01/24 12:11:19;;;;;;;9.23;5.63;;;;;;;10.94;31.47;93955.09;2068540;69;20590;-68
2022/01/24 12:13:53;;;;;;;8.93;5.97;;;;;;;9.33;34.18;93958.78;2068540;69;20175;-69
2022/01/24 12:16:20;;;;;;;19.70;7.10;;;;;;;9.55;33.84;93948.69;2068644;69;20148;-69
2022/01/24 12:18:49;;;;;;;19.65;7.03;;;;;;;9.81;33.78;93938.16;2065109;69;20214;-71
2022/01/24 12:21:26;;;;;;;16.60;7.30;;;;;;;9.49;34.19;93939.75;2068259;69;20161;-70
2022/01/24 12:23:54;;;;;;;23.00;6.60;;;;;;;8.73;34.93;93949.41;2068545;69;20230;-69
2022/01/24 12:26:24;;;;;;;23.48;7.47;;;;;;;7.81;36.58;93941.25;2067969;69;20593;-71
2022/01/24 12:29:01;;;;;;;18.88;7.35;;;;;;;7.78;37.77;93938.81;2068344;69;20148;-68
2022/01/24 12:31:35;;;;;;;22.83;7.45;;;;;;;8.24;37.72;93933.09;2068340;69;20235;-72
2022/01/24 12:34:08;;;;;;;23.83;8.93;;;;;;;8.13;36.17;93928.66;2065115;69;20627;-70
2022/01/24 12:36:53;;;;;;;24.23;10.73;;;;;;;7.58;37.18;93920.94;2068346;69;20156;-70
2022/01/24 12:39:34;;;;;;;23.92;11.00;;;;;;;6.85;38.56;93926.13;2068316;69;20232;-69
2022/01/24 12:42:07;;;;;;;19.30;5.70;;;;;;;6.26;39.22;93915.69;2068330;69;20593;-71
2022/01/24 12:47:14;;;;;;;27.13;10.35;;;;;;;6.75;39.25;93917.53;2068465;69;20596;-72
2022/01/24 12:49:42;;;;;;;22.15;9.68;;;;;;;5.65;41.33;93904.22;2068287;69;20228;-72
2022/01/24 12:52:10;;;;;;;23.58;11.02;;;;;;;5.59;42.43;93898.03;2068534;69;20155;-72
2022/01/24 12:54:39;;;;;;;29.20;11.77;;;;;;;5.25;42.26;93904.50;2068299;69;20157;-73
2022/01/24 12:57:10;;;;;;;37.70;11.65;;;;;;;5.50;42.47;93895.75;2068328;69;20172;-73
2022/01/24 12:59:38;;;;;;;33.00;13.18;;;;;;;5.04;42.65;93903.78;2068319;69;20129;-71
2022/01/24 13:02:05;;;;;;;30.80;12.25;;;;;;;5.38;42.44;93892.50;2068265;69;20318;-72
2022/01/24 13:04:33;;;;;;;35.95;14.07;;;;;;;5.39;42.89;93890.44;2068166;69;20141;-72
2022/01/24 13:06:59;;;;;;;33.75;15.27;;;;;;;5.20;42.50;93897.03;2068236;69;20148;-73
2022/01/24 13:09:25;;;;;;;37.13;16.27;;;;;;;5.00;42.96;93889.44;2068353;69;20137;-72
2022/01/24 13:11:54;;;;;;;40.45;17.83;;;;;;;4.99;43.34;93885.13;2068218;69;20136;-68
2022/01/24 13:14:28;;;;;;;39.25;16.30;;;;;;;5.00;44.47;93890.19;2068226;69;20152;-69
2022/01/24 13:25:12;;;;;;;54.20;13.10;;;;;;;3.73;46.22;93884.94;2068233;69;20141;-69
2022/01/24 13:27:48;;;;;;;69.28;21.92;;;;;;;4.21;45.71;93888.47;2068231;69;20167;-69
2022/01/24 13:30:19;;;;;;;76.15;21.92;;;;;;;3.93;46.39;93888.34;2068218;69;20646;-68
2022/01/24 13:32:54;;;;;;;85.10;25.55;;;;;;;3.90;46.97;93889.44;2067745;69;20547;-68